Terminal Aerodrome Forecast
Issued by NWS Omaha/Valley, NE

Current Version | Previous Version | Text Only | Print | Product List | Glossary On
Versions: 1 2 3 4 5 6 7 8 9 10 11 12 13 14 15 16 17 18 19 20 21 22 23 24 25 26 27 28 29 30 31 32 33 34 35 36 37 38 39 40 41
000
FTUS43 KOAX 190520
TAFOMA
TAF
KOMA 190520Z 1906/2006 15014KT P6SM SKC
     FM190800 16014KT P6SM OVC012
     FM191100 16014KT 5SM BR OVC008
     FM191500 18017G25KT P6SM SCT040
     FM200100 18015KT P6SM SKC=

USA.gov is the U.S. government's official web portal to all federal, state and local government web resources and services.